PWSweather.com
Personal Weather Stations
Station Observations
KMIEASTT1
Tawas Bay, East Tawas, MI 48730

Tawas BayEast Tawas, MI 48730

Lat: 44.28, Lon: -83.48

Elevation: 600

Station Type: Davis VantagePro

http://www.tawasbayweather.com

High Low Average
Temperature 37.9°F3.3°C 33.4°F0.8°C 35.6°F2.0°C
Dew Point 31.8°F-0.1°C 27.9°F-2.3°C 30.3°F-0.9°C
Winds 4.0 mph 6.4 kmh Calm Calm 1.0 mph W1.6 kmh W
Wind Gusts 8.0 mph12.9 kmh -- 3.0 mph4.8 kmh
Humidity 88% 69% 81%
Pressure 30.52 in1033.5 mb 30.43 in1030.5 mb -
Precipitation 0.00 in0.0 mm - -
Hour Temp Dew Point Humidity Winds Wind Gusts Pressure Precip Precip Rate Daily Precip Total
12:02 AM 33.4°F0.8°C 29.4°F-1.4°C 85% 4.0 mph NW6.4 kmh NW 8.0 mph12.9 kmh 30.43 in1030.5 mb 0.00 in0.0 mm 0.00 in/hr0.0 mm/hr 0.00 in0.0 mm
12:16 AM 33.9°F1.1°C 29.9°F-1.2°C 85% 4.0 mph WSW6.4 kmh WSW 7.0 mph11.3 kmh 30.43 in1030.5 mb 0.00 in0.0 mm 0.00 in/hr0.0 mm/hr 0.00 in0.0 mm
12:31 AM 33.8°F1.0°C 30.1°F-1.1°C 86% 3.0 mph WSW4.8 kmh WSW 5.0 mph8.0 kmh 30.43 in1030.5 mb 0.00 in0.0 mm 0.00 in/hr0.0 mm/hr 0.00 in0.0 mm
12:46 AM 33.4°F0.8°C 30.0°F-1.1°C 87% 2.0 mph WSW3.2 kmh WSW 4.0 mph6.4 kmh 30.43 in1030.5 mb 0.00 in0.0 mm 0.00 in/hr0.0 mm/hr 0.00 in0.0 mm
01:02 AM 33.9°F1.1°C 29.9°F-1.2°C 85% 2.0 mph WSW3.2 kmh WSW 6.0 mph9.7 kmh 30.44 in1030.8 mb 0.00 in0.0 mm 0.00 in/hr0.0 mm/hr 0.00 in0.0 mm
01:16 AM 34.0°F1.1°C 30.0°F-1.1°C 85% 3.0 mph WSW4.8 kmh WSW 6.0 mph9.7 kmh 30.44 in1030.8 mb 0.00 in0.0 mm 0.00 in/hr0.0 mm/hr 0.00 in0.0 mm
01:30 AM 33.9°F1.1°C 29.9°F-1.2°C 85% 3.0 mph WNW4.8 kmh WNW 4.0 mph6.4 kmh 30.44 in1030.8 mb 0.00 in0.0 mm 0.00 in/hr0.0 mm/hr 0.00 in0.0 mm
01:46 AM 33.9°F1.1°C 29.9°F-1.2°C 85% 2.0 mph NW3.2 kmh NW 4.0 mph6.4 kmh 30.45 in1031.2 mb 0.00 in0.0 mm 0.00 in/hr0.0 mm/hr 0.00 in0.0 mm
02:01 AM 34.1°F1.2°C 30.1°F-1.1°C 85% 3.0 mph WNW4.8 kmh WNW 5.0 mph8.0 kmh 30.45 in1031.2 mb 0.00 in0.0 mm 0.00 in/hr0.0 mm/hr 0.00 in0.0 mm
02:16 AM 34.2°F1.2°C 29.9°F-1.2°C 84% 2.0 mph W3.2 kmh W 4.0 mph6.4 kmh 30.45 in1031.2 mb 0.00 in0.0 mm 0.00 in/hr0.0 mm/hr 0.00 in0.0 mm
02:31 AM 34.2°F1.2°C 29.9°F-1.2°C 84% 2.0 mph WSW3.2 kmh WSW 5.0 mph8.0 kmh 30.46 in1031.5 mb 0.00 in0.0 mm 0.00 in/hr0.0 mm/hr 0.00 in0.0 mm
02:46 AM 34.3°F1.3°C 30.0°F-1.1°C 84% 4.0 mph W6.4 kmh W 6.0 mph9.7 kmh 30.46 in1031.5 mb 0.00 in0.0 mm 0.00 in/hr0.0 mm/hr 0.00 in0.0 mm
03:02 AM 34.4°F1.3°C 30.1°F-1.1°C 84% 3.0 mph W4.8 kmh W 7.0 mph11.3 kmh 30.46 in1031.5 mb 0.00 in0.0 mm 0.00 in/hr0.0 mm/hr 0.00 in0.0 mm
03:16 AM 34.5°F1.4°C 30.2°F-1.0°C 84% 4.0 mph WSW6.4 kmh WSW 5.0 mph8.0 kmh 30.46 in1031.5 mb 0.00 in0.0 mm 0.00 in/hr0.0 mm/hr 0.00 in0.0 mm
03:31 AM 34.4°F1.3°C 30.1°F-1.1°C 84% 2.0 mph WNW3.2 kmh WNW 3.0 mph4.8 kmh 30.46 in1031.5 mb 0.00 in0.0 mm 0.00 in/hr0.0 mm/hr 0.00 in0.0 mm
03:46 AM 34.5°F1.4°C 30.2°F-1.0°C 84% 1.0 mph WNW1.6 kmh WNW 3.0 mph4.8 kmh 30.46 in1031.5 mb 0.00 in0.0 mm 0.00 in/hr0.0 mm/hr 0.00 in0.0 mm
04:02 AM 34.4°F1.3°C 30.1°F-1.1°C 84% 2.0 mph W3.2 kmh W 3.0 mph4.8 kmh 30.47 in1031.8 mb 0.00 in0.0 mm 0.00 in/hr0.0 mm/hr 0.00 in0.0 mm
04:15 AM 34.4°F1.3°C 30.1°F-1.1°C 84% 1.0 mph WNW1.6 kmh WNW 4.0 mph6.4 kmh 30.47 in1031.8 mb 0.00 in0.0 mm 0.00 in/hr0.0 mm/hr 0.00 in0.0 mm
04:31 AM 34.5°F1.4°C 30.2°F-1.0°C 84% 2.0 mph W3.2 kmh W 4.0 mph6.4 kmh 30.48 in1032.2 mb 0.00 in0.0 mm 0.00 in/hr0.0 mm/hr 0.00 in0.0 mm
04:46 AM 34.7°F1.5°C 30.4°F-0.9°C 84% 3.0 mph NW4.8 kmh NW 5.0 mph8.0 kmh 30.48 in1032.2 mb 0.00 in0.0 mm 0.00 in/hr0.0 mm/hr 0.00 in0.0 mm
05:01 AM 34.9°F1.6°C 30.3°F-0.9°C 83% 2.0 mph NW3.2 kmh NW 4.0 mph6.4 kmh 30.49 in1032.5 mb 0.00 in0.0 mm 0.00 in/hr0.0 mm/hr 0.00 in0.0 mm
05:16 AM 34.8°F1.6°C 30.2°F-1.0°C 83% 2.0 mph W3.2 kmh W 4.0 mph6.4 kmh 30.49 in1032.5 mb 0.00 in0.0 mm 0.00 in/hr0.0 mm/hr 0.00 in0.0 mm
05:31 AM 34.9°F1.6°C 30.3°F-0.9°C 83% 1.0 mph W1.6 kmh W 3.0 mph4.8 kmh 30.49 in1032.5 mb 0.00 in0.0 mm 0.00 in/hr0.0 mm/hr 0.00 in0.0 mm
05:46 AM 35.3°F1.8°C 30.7°F-0.7°C 83% Calm Calm 2.0 mph3.2 kmh 30.49 in1032.5 mb 0.00 in0.0 mm 0.00 in/hr0.0 mm/hr 0.00 in0.0 mm
06:01 AM 34.2°F1.2°C 30.7°F-0.7°C 87% 1.0 mph WSW1.6 kmh WSW 1.0 mph1.6 kmh 30.50 in1032.8 mb 0.00 in0.0 mm 0.00 in/hr0.0 mm/hr 0.00 in0.0 mm
06:16 AM 34.8°F1.6°C 30.8°F-0.7°C 85% 1.0 mph NW1.6 kmh NW 2.0 mph3.2 kmh 30.50 in1032.8 mb 0.00 in0.0 mm 0.00 in/hr0.0 mm/hr 0.00 in0.0 mm
06:31 AM 35.4°F1.9°C 30.8°F-0.7°C 83% Calm Calm 1.0 mph1.6 kmh 30.50 in1032.8 mb 0.00 in0.0 mm 0.00 in/hr0.0 mm/hr 0.00 in0.0 mm
06:46 AM 35.7°F2.1°C 30.8°F-0.7°C 82% 1.0 mph NW1.6 kmh NW 1.0 mph1.6 kmh 30.50 in1032.8 mb 0.00 in0.0 mm 0.00 in/hr0.0 mm/hr 0.00 in0.0 mm
07:02 AM 36.0°F2.2°C 31.1°F-0.5°C 82% Calm Calm -- 30.49 in1032.5 mb 0.00 in0.0 mm 0.00 in/hr0.0 mm/hr 0.00 in0.0 mm
07:16 AM 36.4°F2.4°C 31.1°F-0.5°C 81% Calm Calm -- 30.49 in1032.5 mb 0.00 in0.0 mm 0.00 in/hr0.0 mm/hr 0.00 in0.0 mm
07:31 AM 36.1°F2.3°C 31.2°F-0.4°C 82% Calm Calm -- 30.49 in1032.5 mb 0.00 in0.0 mm 0.00 in/hr0.0 mm/hr 0.00 in0.0 mm
07:46 AM 36.2°F2.3°C 31.2°F-0.4°C 82% Calm Calm -- 30.50 in1032.8 mb 0.00 in0.0 mm 0.00 in/hr0.0 mm/hr 0.00 in0.0 mm
08:01 AM 36.4°F2.4°C 31.4°F-0.3°C 82% Calm Calm -- 30.50 in1032.8 mb 0.00 in0.0 mm 0.00 in/hr0.0 mm/hr 0.00 in0.0 mm
08:15 AM 36.1°F2.3°C 31.2°F-0.4°C 82% Calm Calm -- 30.51 in1033.2 mb 0.00 in0.0 mm 0.00 in/hr0.0 mm/hr 0.00 in0.0 mm
08:30 AM 35.2°F1.8°C 30.9°F-0.6°C 84% Calm Calm 3.0 mph4.8 kmh 30.51 in1033.2 mb 0.00 in0.0 mm 0.00 in/hr0.0 mm/hr 0.00 in0.0 mm
08:45 AM 35.0°F1.7°C 31.0°F-0.6°C 85% Calm Calm -- 30.51 in1033.2 mb 0.00 in0.0 mm 0.00 in/hr0.0 mm/hr 0.00 in0.0 mm
09:01 AM 35.5°F1.9°C 31.2°F-0.4°C 84% 1.0 mph WSW1.6 kmh WSW 2.0 mph3.2 kmh 30.51 in1033.2 mb 0.00 in0.0 mm 0.00 in/hr0.0 mm/hr 0.00 in0.0 mm
09:16 AM 35.8°F2.1°C 31.5°F-0.3°C 84% Calm Calm 1.0 mph1.6 kmh 30.50 in1032.8 mb 0.00 in0.0 mm 0.00 in/hr0.0 mm/hr 0.00 in0.0 mm
09:31 AM 36.2°F2.3°C 31.5°F-0.3°C 83% 2.0 mph W3.2 kmh W 2.0 mph3.2 kmh 30.50 in1032.8 mb 0.00 in0.0 mm 0.00 in/hr0.0 mm/hr 0.00 in0.0 mm
09:46 AM 36.1°F2.3°C 31.2°F-0.4°C 82% 1.0 mph W1.6 kmh W 2.0 mph3.2 kmh 30.50 in1032.8 mb 0.00 in0.0 mm 0.00 in/hr0.0 mm/hr 0.00 in0.0 mm
10:02 AM 36.5°F2.5°C 31.5°F-0.3°C 82% 2.0 mph W3.2 kmh W 2.0 mph3.2 kmh 30.49 in1032.5 mb 0.00 in0.0 mm 0.00 in/hr0.0 mm/hr 0.00 in0.0 mm
10:15 AM 36.3°F2.4°C 31.3°F-0.4°C 82% Calm Calm 4.0 mph6.4 kmh 30.49 in1032.5 mb 0.00 in0.0 mm 0.00 in/hr0.0 mm/hr 0.00 in0.0 mm
10:31 AM 36.0°F2.2°C 31.1°F-0.5°C 82% 1.0 mph N1.6 kmh N 2.0 mph3.2 kmh 30.50 in1032.8 mb 0.00 in0.0 mm 0.00 in/hr0.0 mm/hr 0.00 in0.0 mm
10:46 AM 36.0°F2.2°C 31.4°F-0.3°C 83% 1.0 mph NNW1.6 kmh NNW 1.0 mph1.6 kmh 30.50 in1032.8 mb 0.00 in0.0 mm 0.00 in/hr0.0 mm/hr 0.00 in0.0 mm
11:02 AM 36.2°F2.3°C 31.2°F-0.4°C 82% Calm Calm 1.0 mph1.6 kmh 30.51 in1033.2 mb 0.00 in0.0 mm 0.00 in/hr0.0 mm/hr 0.00 in0.0 mm
11:15 AM 36.6°F2.6°C 31.0°F-0.6°C 80% 1.0 mph NNW1.6 kmh NNW 2.0 mph3.2 kmh 30.52 in1033.5 mb 0.00 in0.0 mm 0.00 in/hr0.0 mm/hr 0.00 in0.0 mm
11:31 AM 35.7°F2.1°C 31.6°F-0.2°C 85% 2.0 mph SW3.2 kmh SW 3.0 mph4.8 kmh 30.51 in1033.2 mb 0.00 in0.0 mm 0.00 in/hr0.0 mm/hr 0.00 in0.0 mm
11:46 AM 34.8°F1.6°C 31.3°F-0.4°C 87% 1.0 mph SSW1.6 kmh SSW 2.0 mph3.2 kmh 30.51 in1033.2 mb 0.00 in0.0 mm 0.00 in/hr0.0 mm/hr 0.00 in0.0 mm
12:02 PM 35.6°F2.0°C 31.8°F-0.1°C 86% Calm Calm 2.0 mph3.2 kmh 30.49 in1032.5 mb 0.00 in0.0 mm 0.00 in/hr0.0 mm/hr 0.00 in0.0 mm
12:15 PM 35.2°F1.8°C 31.4°F-0.3°C 86% 2.0 mph S3.2 kmh S 3.0 mph4.8 kmh 30.48 in1032.2 mb 0.00 in0.0 mm 0.00 in/hr0.0 mm/hr 0.00 in0.0 mm
12:31 PM 35.5°F1.9°C 31.7°F-0.2°C 86% Calm Calm 2.0 mph3.2 kmh 30.48 in1032.2 mb 0.00 in0.0 mm 0.00 in/hr0.0 mm/hr 0.00 in0.0 mm
12:46 PM 34.3°F1.3°C 31.1°F-0.5°C 88% 1.0 mph S1.6 kmh S 5.0 mph8.0 kmh 30.48 in1032.2 mb 0.00 in0.0 mm 0.00 in/hr0.0 mm/hr 0.00 in0.0 mm
01:02 PM 35.0°F1.7°C 31.0°F-0.6°C 85% 1.0 mph SSW1.6 kmh SSW 3.0 mph4.8 kmh 30.48 in1032.2 mb 0.00 in0.0 mm 0.00 in/hr0.0 mm/hr 0.00 in0.0 mm
01:16 PM 34.7°F1.5°C 31.2°F-0.4°C 87% Calm Calm 2.0 mph3.2 kmh 30.47 in1031.8 mb 0.00 in0.0 mm 0.00 in/hr0.0 mm/hr 0.00 in0.0 mm
01:31 PM 34.7°F1.5°C 30.7°F-0.7°C 85% 1.0 mph SSW1.6 kmh SSW 2.0 mph3.2 kmh 30.48 in1032.2 mb 0.00 in0.0 mm 0.00 in/hr0.0 mm/hr 0.00 in0.0 mm
01:46 PM 36.0°F2.2°C 30.1°F-1.1°C 79% 3.0 mph WNW4.8 kmh WNW 5.0 mph8.0 kmh 30.48 in1032.2 mb 0.00 in0.0 mm 0.00 in/hr0.0 mm/hr 0.00 in0.0 mm
02:00 PM 37.5°F3.1°C 30.3°F-0.9°C 75% 2.0 mph W3.2 kmh W 5.0 mph8.0 kmh 30.47 in1031.8 mb 0.00 in0.0 mm 0.00 in/hr0.0 mm/hr 0.00 in0.0 mm
02:15 PM 37.9°F3.3°C 30.0°F-1.1°C 73% 3.0 mph WNW4.8 kmh WNW 5.0 mph8.0 kmh 30.47 in1031.8 mb 0.00 in0.0 mm 0.00 in/hr0.0 mm/hr 0.00 in0.0 mm
02:31 PM 37.9°F3.3°C 30.0°F-1.1°C 73% 3.0 mph WNW4.8 kmh WNW 7.0 mph11.3 kmh 30.46 in1031.5 mb 0.00 in0.0 mm 0.00 in/hr0.0 mm/hr 0.00 in0.0 mm
02:45 PM 37.5°F3.1°C 30.0°F-1.1°C 74% 2.0 mph NW3.2 kmh NW 6.0 mph9.7 kmh 30.46 in1031.5 mb 0.00 in0.0 mm 0.00 in/hr0.0 mm/hr 0.00 in0.0 mm
03:02 PM 37.3°F2.9°C 30.1°F-1.1°C 75% 3.0 mph NNW4.8 kmh NNW 4.0 mph6.4 kmh 30.46 in1031.5 mb 0.00 in0.0 mm 0.00 in/hr0.0 mm/hr 0.00 in0.0 mm
03:17 PM 37.3°F2.9°C 30.1°F-1.1°C 75% 2.0 mph NW3.2 kmh NW 5.0 mph8.0 kmh 30.46 in1031.5 mb 0.00 in0.0 mm 0.00 in/hr0.0 mm/hr 0.00 in0.0 mm
03:30 PM 37.3°F2.9°C 30.1°F-1.1°C 75% 2.0 mph WNW3.2 kmh WNW 4.0 mph6.4 kmh 30.45 in1031.2 mb 0.00 in0.0 mm 0.00 in/hr0.0 mm/hr 0.00 in0.0 mm
03:46 PM 37.4°F3.0°C 29.9°F-1.2°C 74% 2.0 mph NW3.2 kmh NW 4.0 mph6.4 kmh 30.45 in1031.2 mb 0.00 in0.0 mm 0.00 in/hr0.0 mm/hr 0.00 in0.0 mm
04:02 PM 37.5°F3.1°C 30.0°F-1.1°C 74% 2.0 mph NW3.2 kmh NW 5.0 mph8.0 kmh 30.45 in1031.2 mb 0.00 in0.0 mm 0.00 in/hr0.0 mm/hr 0.00 in0.0 mm
04:15 PM 37.3°F2.9°C 29.8°F-1.2°C 74% 2.0 mph NW3.2 kmh NW 3.0 mph4.8 kmh 30.44 in1030.8 mb 0.00 in0.0 mm 0.00 in/hr0.0 mm/hr 0.00 in0.0 mm
04:31 PM 37.3°F2.9°C 29.5°F-1.4°C 73% 1.0 mph NW1.6 kmh NW 3.0 mph4.8 kmh 30.45 in1031.2 mb 0.00 in0.0 mm 0.00 in/hr0.0 mm/hr 0.00 in0.0 mm
04:47 PM 37.4°F3.0°C 28.5°F-1.9°C 70% 2.0 mph NW3.2 kmh NW 4.0 mph6.4 kmh 30.45 in1031.2 mb 0.00 in0.0 mm 0.00 in/hr0.0 mm/hr 0.00 in0.0 mm
05:02 PM 37.3°F2.9°C 28.1°F-2.2°C 69% Calm Calm 3.0 mph4.8 kmh 30.45 in1031.2 mb 0.00 in0.0 mm 0.00 in/hr0.0 mm/hr 0.00 in0.0 mm
05:16 PM 37.5°F3.1°C 28.3°F-2.1°C 69% Calm Calm 2.0 mph3.2 kmh 30.45 in1031.2 mb 0.00 in0.0 mm 0.00 in/hr0.0 mm/hr 0.00 in0.0 mm
05:31 PM 37.3°F2.9°C 28.1°F-2.2°C 69% 1.0 mph NW1.6 kmh NW 3.0 mph4.8 kmh 30.46 in1031.5 mb 0.00 in0.0 mm 0.00 in/hr0.0 mm/hr 0.00 in0.0 mm
05:46 PM 37.1°F2.8°C 27.9°F-2.3°C 69% 1.0 mph NW1.6 kmh NW 2.0 mph3.2 kmh 30.46 in1031.5 mb 0.00 in0.0 mm 0.00 in/hr0.0 mm/hr 0.00 in0.0 mm
06:00 PM 36.4°F2.4°C 28.9°F-1.7°C 74% 1.0 mph WSW1.6 kmh WSW 2.0 mph3.2 kmh 30.46 in1031.5 mb 0.00 in0.0 mm 0.00 in/hr0.0 mm/hr 0.00 in0.0 mm
06:16 PM 36.1°F2.3°C 29.0°F-1.7°C 75% 1.0 mph WSW1.6 kmh WSW 2.0 mph3.2 kmh 30.46 in1031.5 mb 0.00 in0.0 mm 0.00 in/hr0.0 mm/hr 0.00 in0.0 mm
06:31 PM 36.1°F2.3°C 29.3°F-1.5°C 76% Calm Calm 1.0 mph1.6 kmh 30.46 in1031.5 mb 0.00 in0.0 mm 0.00 in/hr0.0 mm/hr 0.00 in0.0 mm
06:46 PM 36.2°F2.3°C 30.6°F-0.8°C 80% 1.0 mph S1.6 kmh S 2.0 mph3.2 kmh 30.46 in1031.5 mb 0.00 in0.0 mm 0.00 in/hr0.0 mm/hr 0.00 in0.0 mm
07:02 PM 35.0°F1.7°C 31.0°F-0.6°C 85% Calm Calm -- 30.47 in1031.8 mb 0.00 in0.0 mm 0.00 in/hr0.0 mm/hr 0.00 in0.0 mm
07:16 PM 34.9°F1.6°C 31.2°F-0.4°C 86% 1.0 mph W1.6 kmh W 1.0 mph1.6 kmh 30.47 in1031.8 mb 0.00 in0.0 mm 0.00 in/hr0.0 mm/hr 0.00 in0.0 mm
07:30 PM 34.9°F1.6°C 30.9°F-0.6°C 85% Calm Calm 1.0 mph1.6 kmh 30.48 in1032.2 mb 0.00 in0.0 mm 0.00 in/hr0.0 mm/hr 0.00 in0.0 mm
07:46 PM 35.1°F1.7°C 30.5°F-0.8°C 83% 1.0 mph W1.6 kmh W 2.0 mph3.2 kmh 30.47 in1031.8 mb 0.00 in0.0 mm 0.00 in/hr0.0 mm/hr 0.00 in0.0 mm
08:02 PM 34.7°F1.5°C 30.1°F-1.1°C 83% Calm Calm -- 30.47 in1031.8 mb 0.00 in0.0 mm 0.00 in/hr0.0 mm/hr 0.00 in0.0 mm
08:16 PM 35.0°F1.7°C 29.8°F-1.2°C 81% Calm Calm -- 30.47 in1031.8 mb 0.00 in0.0 mm 0.00 in/hr0.0 mm/hr 0.00 in0.0 mm
08:31 PM 34.8°F1.6°C 29.6°F-1.3°C 81% Calm Calm 2.0 mph3.2 kmh 30.47 in1031.8 mb 0.00 in0.0 mm 0.00 in/hr0.0 mm/hr 0.00 in0.0 mm
08:46 PM 33.9°F1.1°C 28.4°F-2.0°C 80% Calm Calm 1.0 mph1.6 kmh 30.47 in1031.8 mb 0.00 in0.0 mm 0.00 in/hr0.0 mm/hr 0.00 in0.0 mm
09:02 PM 32.1°F0.1°C 26.9°F-2.8°C 81% 1.0 mph W1.6 kmh W 2.0 mph3.2 kmh 30.47 in1031.8 mb 0.00 in0.0 mm 0.00 in/hr0.0 mm/hr 0.00 in0.0 mm
09:15 PM 31.4°F-0.3°C 26.6°F-3.0°C 82% 1.0 mph W1.6 kmh W 2.0 mph3.2 kmh 30.47 in1031.8 mb 0.00 in0.0 mm 0.00 in/hr0.0 mm/hr 0.00 in0.0 mm
09:30 PM 30.5°F-0.8°C 26.3°F-3.2°C 84% 1.0 mph W1.6 kmh W 2.0 mph3.2 kmh 30.46 in1031.5 mb 0.00 in0.0 mm 0.00 in/hr0.0 mm/hr 0.00 in0.0 mm
09:45 PM 29.6°F-1.3°C 25.7°F-3.5°C 85% 1.0 mph W1.6 kmh W 2.0 mph3.2 kmh 30.46 in1031.5 mb 0.00 in0.0 mm 0.00 in/hr0.0 mm/hr 0.00 in0.0 mm
10:03 PM 29.4°F-1.4°C 25.7°F-3.5°C 86% 1.0 mph W1.6 kmh W 2.0 mph3.2 kmh 30.46 in1031.5 mb 0.00 in0.0 mm 0.00 in/hr0.0 mm/hr 0.00 in0.0 mm
10:16 PM 29.2°F-1.6°C 25.5°F-3.6°C 86% Calm Calm 1.0 mph1.6 kmh 30.45 in1031.2 mb 0.00 in0.0 mm 0.00 in/hr0.0 mm/hr 0.00 in0.0 mm
10:31 PM 29.0°F-1.7°C 25.4°F-3.7°C 86% 1.0 mph W1.6 kmh W 2.0 mph3.2 kmh 30.45 in1031.2 mb 0.00 in0.0 mm 0.00 in/hr0.0 mm/hr 0.00 in0.0 mm
10:46 PM 28.8°F-1.8°C 25.2°F-3.8°C 86% 1.0 mph W1.6 kmh W 2.0 mph3.2 kmh 30.45 in1031.2 mb 0.00 in0.0 mm 0.00 in/hr0.0 mm/hr 0.00 in0.0 mm
11:02 PM 28.6°F-1.9°C 25.0°F-3.9°C 86% 1.0 mph W1.6 kmh W 2.0 mph3.2 kmh 30.45 in1031.2 mb 0.00 in0.0 mm 0.00 in/hr0.0 mm/hr 0.00 in0.0 mm
11:16 PM 28.5°F-1.9°C 24.9°F-3.9°C 86% 1.0 mph W1.6 kmh W 2.0 mph3.2 kmh 30.44 in1030.8 mb 0.00 in0.0 mm 0.00 in/hr0.0 mm/hr 0.00 in0.0 mm
11:31 PM 28.3°F-2.1°C 24.9°F-3.9°C 87% 1.0 mph W1.6 kmh W 1.0 mph1.6 kmh 30.45 in1031.2 mb 0.00 in0.0 mm 0.00 in/hr0.0 mm/hr 0.00 in0.0 mm
11:46 PM 27.9°F-2.3°C 24.5°F-4.2°C 87% Calm Calm 2.0 mph3.2 kmh 30.45 in1031.2 mb 0.00 in0.0 mm 0.00 in/hr0.0 mm/hr 0.00 in0.0 mm